Muskoka Airport
CYQA : rendu visible

Aérodrome :











RETROUVEZ-NOUS SUR...

 
LOGIN :

S'inscrire | Disclaimer

   EN    FR    IT 

 









Légende :    VFR   VFR Marginal   IFR   IFR Intensif   IFR Très Intensif
Visi : 
Plafond : 
>= 8 km
>= 3000ft
5 à 8 km
1000 à 3000 ft
1500m à 5 km
500 à 1000 ft
800 à 1500m
200 à 500 ft
< 800m
< 200 ft
Symboles :   Orages  Brouillard  Fortes neiges  Fortes précipitations  Vent > 20 kt






- Altitude de l'aérodrome : 925 ft
- Code IATA : YQA


CYQA - Muskoka

DERNIER METAR :
  • 242306Z AUTO 19007KT 180V280 2 1/4SM +TSRA BR FEW028 BKN033 BKN040 OVC055 19/18 A2995 RMK LTNG DIST S SW NW SLP145 DENSITY ALT 1500FT

METARs EXPIRÉS :
  • 242250Z AUTO 29007KT 180V310 7SM TSRA FEW041 BKN050 BKN070 OVC093 20/17 A2995 RMK LTNG DIST ALQDS SLP143 DENSITY ALT 1600FT
  • 242246Z AUTO 26008KT 160V280 7SM +TSRA BKN050 BKN070 OVC095 21/17 A2994 RMK LTNG DIST ALQDS SLP140 DENSITY ALT 1700FT
  • 242222Z AUTO 15009G15KT 9SM -TSRA BKN100 BKN140 BKN170 24/16 A2993 RMK LTNG DIST SW W NW PRESRR SLP136 DENSITY ALT 2100FT
  • 242200Z AUTO 13012G18KT 9SM FEW100 SCT140 SCT180 SCT200 24/15 A2991 RMK LTNG DIST SW W SLP129 DENSITY ALT 2100FT
  • 242100Z AUTO 15014G22KT 9SM OVC120 27/16 A2993 RMK SLP137 DENSITY ALT 2400FT
  • 242000Z AUTO 15015G20KT 9SM OVC130 25/16 A2996 RMK SLP145 DENSITY ALT 2200FT

TAF AMD TAF CYQA
Valide du 24 à 21h jusqu'au 25 à 02h UTC


242121Z 2421/2502 15012G22KT P6SM BKN120
FM242200 VRB15G30KT 3/4SM +TSRA BR OVC030CB
TEMPO 2422/2424 P6SM -SHRA
FM250000 18005KT P6SM -SHRA SCT012 OVC040 RMK FCST BASED ON AUTO OBS. NXT FCST WILL BE ISSUED AT 251145Z
FIR CZYZ / Amérique du Nord



MET'MAP, la Météo Aéronautique d'un coup d'oeil ! - Copyright ORBIFLY Décembre 2007 - Disclaimer

ORBIFLY MET'MAP TEAM :

Programmation & Développement : Alexandra Zaïnal
Sur une idée originale de : Baudouin d'Aumeries
Assistance à la programmation : Marc-Olivier Méhu
Soutien technique & logistique : Manuel Goepfert

Contact : metmap@orbifly.com




SOURCES & CREDITS :

   NOAA       Earth
Advisory